Time;durP1;ratioP1;P1;durP2;ratioP2;P2;SDS_P1;SDS_P2;PMS_P1;PMS_P2;Temp;Humidity;BMP_temperature;BMP_pressure;BME280_temperature;BME280_humidity;BME280_pressure;Samples;Min_cycle;Max_cycle;Signal;HPM_P1;HPM_P2
2022/09/22 00:01:25;;;;;;;1.63;1.42;;;22.90;46.10;;;;;;5029147;28;20053;-59
2022/09/22 00:03:55;;;;;;;1.70;1.60;;;22.90;46.10;;;;;;5026795;28;20501;-60
2022/09/22 00:06:31;;;;;;;1.40;1.20;;;22.90;46.10;;;;;;5015199;28;20045;-60
2022/09/22 00:08:59;;;;;;;2.03;1.42;;;22.90;46.10;;;;;;4999990;28;20403;-59
2022/09/22 00:11:29;;;;;;;1.60;1.23;;;22.90;46.00;;;;;;5026151;28;20049;-60
2022/09/22 00:14:01;;;;;;;1.58;1.30;;;22.90;46.00;;;;;;5028136;28;20049;-60
2022/09/22 00:16:32;;;;;;;2.13;1.38;;;22.90;46.00;;;;;;5015386;28;20508;-59
2022/09/22 00:18:59;;;;;;;1.42;0.98;;;22.90;46.00;;;;;;5009510;28;20092;-60
2022/09/22 00:21:26;;;;;;;1.95;1.35;;;22.90;46.00;;;;;;4994455;28;20207;-60
2022/09/22 00:23:54;;;;;;;1.70;1.58;;;22.90;46.00;;;;;;5012480;28;20050;-59
2022/09/22 00:26:23;;;;;;;1.98;1.73;;;22.90;46.00;;;;;;5031749;28;20042;-60
2022/09/22 00:28:51;;;;;;;1.48;1.38;;;22.90;46.00;;;;;;5013644;28;20414;-60
2022/09/22 00:31:24;;;;;;;1.55;1.45;;;22.90;46.10;;;;;;5013585;28;20402;-60
2022/09/22 00:33:53;;;;;;;1.20;1.10;;;22.90;46.10;;;;;;5017435;28;20096;-60
2022/09/22 00:36:24;;;;;;;2.42;1.45;;;22.90;46.10;;;;;;5021219;28;20045;-60
2022/09/22 00:38:53;;;;;;;1.40;1.30;;;22.90;46.10;;;;;;5008763;28;20046;-60
2022/09/22 00:41:27;;;;;;;2.60;1.60;;;22.90;46.10;;;;;;5012986;28;20054;-60
2022/09/22 00:44:34;;;;;;;2.13;1.20;;;22.90;46.10;;;;;;5014343;28;20065;-60
2022/09/22 00:47:33;;;;;;;2.85;1.30;;;22.90;46.10;;;;;;5010716;28;20049;-60
2022/09/22 00:50:18;;;;;;;1.92;1.40;;;22.90;46.10;;;;;;5017269;28;20057;-60
2022/09/22 00:52:58;;;;;;;1.60;1.50;;;22.80;46.10;;;;;;5016016;28;20401;-60
2022/09/22 00:55:43;;;;;;;1.45;1.05;;;22.80;46.00;;;;;;5025635;28;20041;-59
2022/09/22 00:58:15;;;;;;;1.20;1.10;;;22.80;46.10;;;;;;5012392;28;20045;-60
2022/09/22 01:00:42;;;;;;;1.38;1.27;;;22.80;46.10;;;;;;5013108;28;20410;-60
2022/09/22 01:03:15;;;;;;;1.40;1.30;;;22.80;46.10;;;;;;5016586;28;20053;-60
2022/09/22 01:05:47;;;;;;;1.50;1.40;;;22.80;46.10;;;;;;5027974;28;20046;-60
2022/09/22 01:08:15;;;;;;;2.13;1.25;;;22.80;46.10;;;;;;5012602;28;20102;-60
2022/09/22 01:10:44;;;;;;;2.13;1.40;;;22.80;46.10;;;;;;5007593;28;20054;-60
2022/09/22 01:13:26;;;;;;;2.17;1.50;;;22.80;46.10;;;;;;5014417;28;20072;-60
2022/09/22 01:16:19;;;;;;;1.65;1.30;;;22.80;46.10;;;;;;5015127;28;20137;-60
2022/09/22 01:19:25;;;;;;;1.70;1.35;;;22.80;46.10;;;;;;5012636;28;20510;-60
2022/09/22 01:22:22;;;;;;;1.73;1.42;;;22.80;46.10;;;;;;5011682;28;20052;-60
2022/09/22 01:25:27;;;;;;;2.08;1.63;;;22.80;46.10;;;;;;4992535;28;20061;-60
2022/09/22 01:28:34;;;;;;;1.45;1.33;;;22.80;46.20;;;;;;4978177;28;20050;-60
2022/09/22 01:31:13;;;;;;;1.02;0.90;;;22.80;46.20;;;;;;4992860;28;20065;-60
2022/09/22 01:33:50;;;;;;;1.30;1.20;;;22.80;46.20;;;;;;5029241;28;20049;-60
2022/09/22 01:36:54;;;;;;;1.20;1.08;;;22.80;46.20;;;;;;5032129;28;20049;-60
2022/09/22 01:39:33;;;;;;;1.52;1.25;;;22.80;46.20;;;;;;5004299;28;20072;-60
2022/09/22 01:42:17;;;;;;;1.30;1.20;;;22.80;46.20;;;;;;5026402;28;20053;-60
2022/09/22 01:45:01;;;;;;;1.40;1.27;;;22.80;46.30;;;;;;4992338;28;20058;-60
2022/09/22 01:47:39;;;;;;;1.48;1.33;;;22.80;46.20;;;;;;5003379;28;20042;-59
2022/09/22 01:50:17;;;;;;;1.15;1.05;;;22.80;46.30;;;;;;5011936;28;20449;-60
2022/09/22 01:52:44;;;;;;;1.17;1.00;;;22.80;46.30;;;;;;5029301;28;20073;-60
2022/09/22 01:55:20;;;;;;;1.55;1.35;;;22.80;46.30;;;;;;5028465;28;20052;-60
2022/09/22 01:58:11;;;;;;;1.75;1.48;;;22.80;46.30;;;;;;4994586;28;20449;-60
2022/09/22 02:00:48;;;;;;;1.40;1.30;;;22.80;46.20;;;;;;5011607;28;20049;-60
2022/09/22 02:03:24;;;;;;;1.83;1.23;;;22.80;46.20;;;;;;5009784;28;20493;-60
2022/09/22 02:05:58;;;;;;;1.30;1.10;;;22.80;46.20;;;;;;5014703;28;20056;-60
2022/09/22 02:08:44;;;;;;;1.45;1.20;;;22.80;46.10;;;;;;5031479;28;20050;-60
2022/09/22 02:11:17;;;;;;;2.50;1.13;;;22.80;46.10;;;;;;5030926;28;20045;-60
2022/09/22 02:13:46;;;;;;;1.10;1.00;;;22.80;46.70;;;;;;5012185;28;20046;-60
2022/09/22 02:16:17;;;;;;;1.17;1.00;;;22.80;46.10;;;;;;5011110;28;20081;-60
2022/09/22 02:19:09;;;;;;;1.83;1.27;;;22.80;46.10;;;;;;5031309;28;20551;-60
2022/09/22 02:21:43;;;;;;;1.35;1.25;;;22.80;46.10;;;;;;5029649;28;20459;-59
2022/09/22 02:24:33;;;;;;;1.65;1.10;;;22.80;46.10;;;;;;5025107;28;20084;-60
2022/09/22 02:27:08;;;;;;;1.50;1.08;;;22.80;46.10;;;;;;5030951;28;20045;-60
2022/09/22 02:29:39;;;;;;;1.35;1.25;;;22.70;46.10;;;;;;5030910;28;20056;-60
2022/09/22 02:32:10;;;;;;;1.00;0.93;;;22.80;46.10;;;;;;5016500;28;20566;-60
2022/09/22 02:34:37;;;;;;;1.63;1.38;;;22.80;46.10;;;;;;5011048;28;20108;-60
2022/09/22 02:37:17;;;;;;;0.85;0.82;;;22.80;46.10;;;;;;5010822;28;20053;-60
2022/09/22 02:40:06;;;;;;;1.77;1.08;;;22.70;46.10;;;;;;5010849;28;20490;-60
2022/09/22 02:42:51;;;;;;;1.00;1.00;;;22.70;46.20;;;;;;5007648;28;20052;-60
2022/09/22 02:45:25;;;;;;;3.38;1.23;;;22.70;46.10;;;;;;5006380;28;20498;-60
2022/09/22 02:48:02;;;;;;;1.20;1.10;;;22.70;46.10;;;;;;5010657;28;20068;-60
2022/09/22 02:50:30;;;;;;;1.02;1.02;;;22.70;46.20;;;;;;5010197;28;20064;-60
2022/09/22 02:53:02;;;;;;;0.98;0.98;;;22.70;46.20;;;;;;5010818;28;20649;-60
2022/09/22 02:55:30;;;;;;;1.45;1.30;;;22.70;46.20;;;;;;5010642;28;20050;-60
2022/09/22 02:57:57;;;;;;;1.13;1.08;;;22.70;46.20;;;;;;5010179;28;20152;-60
2022/09/22 03:00:25;;;;;;;1.05;0.88;;;22.70;46.20;;;;;;5030285;28;20046;-59
2022/09/22 03:02:52;;;;;;;1.48;0.85;;;22.70;46.20;;;;;;5010414;28;20044;-60
2022/09/22 03:05:19;;;;;;;0.90;0.90;;;22.70;46.20;;;;;;5021386;28;20042;-60
2022/09/22 03:07:46;;;;;;;1.17;1.08;;;22.70;46.20;;;;;;5010509;28;20116;-59
2022/09/22 03:10:13;;;;;;;1.70;1.20;;;22.70;46.20;;;;;;5010483;28;20042;-60
2022/09/22 03:12:42;;;;;;;1.10;0.95;;;22.70;46.20;;;;;;5023427;28;20406;-60
2022/09/22 03:15:29;;;;;;;1.20;0.90;;;22.70;46.20;;;;;;5009843;28;20097;-60
2022/09/22 03:17:57;;;;;;;1.05;0.90;;;22.70;46.20;;;;;;5005811;28;20534;-60
2022/09/22 03:20:24;;;;;;;1.00;1.00;;;22.70;46.20;;;;;;5009604;28;20053;-59
2022/09/22 03:22:51;;;;;;;0.80;0.80;;;22.70;46.70;;;;;;5009240;28;20064;-59
2022/09/22 03:25:18;;;;;;;2.42;1.30;;;22.70;46.20;;;;;;5008424;28;20042;-60
2022/09/22 03:27:46;;;;;;;1.95;1.08;;;22.70;46.20;;;;;;5009705;28;20418;-60
2022/09/22 03:30:13;;;;;;;1.13;1.05;;;22.70;46.20;;;;;;5009831;28;20046;-59
2022/09/22 03:32:41;;;;;;;1.00;0.90;;;22.70;46.30;;;;;;5026669;28;20382;-60
2022/09/22 03:35:08;;;;;;;0.98;0.82;;;22.70;46.30;;;;;;5030205;28;20060;-60
2022/09/22 03:37:35;;;;;;;0.80;0.80;;;22.70;46.30;;;;;;5005960;28;20449;-59
2022/09/22 03:40:03;;;;;;;1.02;0.98;;;22.70;46.30;;;;;;4999273;28;20398;-59
2022/09/22 03:42:32;;;;;;;1.55;0.90;;;22.70;46.30;;;;;;5008467;28;20042;-59
2022/09/22 03:44:59;;;;;;;2.70;0.98;;;22.70;46.30;;;;;;4999984;28;20054;-59
2022/09/22 03:47:27;;;;;;;1.35;1.25;;;22.70;46.30;;;;;;5009464;28;20049;-59
2022/09/22 03:49:54;;;;;;;0.80;0.80;;;22.70;46.30;;;;;;4994127;28;20423;-59
2022/09/22 03:52:22;;;;;;;1.10;1.00;;;22.70;46.30;;;;;;5007904;28;20042;-60
2022/09/22 03:54:50;;;;;;;1.13;1.05;;;22.70;46.30;;;;;;5004967;28;20050;-59
2022/09/22 03:57:18;;;;;;;1.00;0.80;;;22.70;46.30;;;;;;5004431;28;20057;-60
2022/09/22 03:59:45;;;;;;;0.80;0.80;;;22.70;46.30;;;;;;5017254;28;20049;-59
2022/09/22 04:02:12;;;;;;;0.90;0.90;;;22.70;46.20;;;;;;5005598;28;20498;-60
2022/09/22 04:04:40;;;;;;;1.02;0.88;;;22.70;46.20;;;;;;5026639;28;20136;-59
2022/09/22 04:07:07;;;;;;;0.70;0.68;;;22.70;46.20;;;;;;5024036;28;20050;-60
2022/09/22 04:09:34;;;;;;;0.85;0.80;;;22.70;46.20;;;;;;5008956;28;20042;-60
2022/09/22 04:12:02;;;;;;;0.70;0.70;;;22.70;46.20;;;;;;5008957;28;20049;-59
2022/09/22 04:14:29;;;;;;;0.88;0.70;;;22.70;46.20;;;;;;5008802;28;20042;-60
2022/09/22 04:16:56;;;;;;;1.17;0.90;;;22.70;46.20;;;;;;5006953;28;20486;-60
2022/09/22 04:19:23;;;;;;;1.00;0.93;;;22.70;46.20;;;;;;5009572;28;20038;-60
2022/09/22 04:21:50;;;;;;;0.80;0.80;;;22.70;46.20;;;;;;5016594;28;20255;-59
2022/09/22 04:24:23;;;;;;;0.90;0.90;;;22.70;46.20;;;;;;5017145;28;20050;-59
2022/09/22 04:26:50;;;;;;;0.50;0.50;;;22.70;46.20;;;;;;5017028;28;20049;-60
2022/09/22 04:29:37;;;;;;;0.70;0.70;;;22.70;46.70;;;;;;5018012;28;20053;-59
2022/09/22 04:32:05;;;;;;;1.05;0.77;;;22.60;46.10;;;;;;5018796;28;20045;-59
2022/09/22 04:34:32;;;;;;;0.60;0.60;;;22.60;46.10;;;;;;5018046;28;20045;-59
2022/09/22 04:36:59;;;;;;;0.80;0.80;;;22.60;46.10;;;;;;5015525;28;20050;-59
2022/09/22 04:39:29;;;;;;;0.82;0.75;;;22.60;45.90;;;;;;5015189;28;20498;-60
2022/09/22 04:41:56;;;;;;;1.65;0.85;;;22.60;45.80;;;;;;5017653;28;20056;-59
2022/09/22 04:44:24;;;;;;;1.92;1.00;;;22.60;45.70;;;;;;5018633;28;20742;-60
2022/09/22 04:46:51;;;;;;;1.08;0.98;;;22.60;45.70;;;;;;5017458;28;20042;-59
2022/09/22 04:49:18;;;;;;;1.23;1.13;;;22.60;45.70;;;;;;5007462;28;20485;-60
2022/09/22 04:51:45;;;;;;;0.95;0.90;;;22.60;45.60;;;;;;5019602;28;20049;-59
2022/09/22 04:54:13;;;;;;;1.48;1.05;;;22.60;45.60;;;;;;5005936;28;20046;-59
2022/09/22 04:56:42;;;;;;;1.52;1.10;;;22.60;45.50;;;;;;5008109;28;20054;-59
2022/09/22 04:59:09;;;;;;;0.63;0.60;;;22.60;45.40;;;;;;5002956;28;20045;-59
2022/09/22 05:01:37;;;;;;;0.93;0.65;;;22.60;45.40;;;;;;5019404;28;20052;-60
2022/09/22 05:04:04;;;;;;;1.10;1.00;;;22.60;45.30;;;;;;5017844;28;20069;-59
2022/09/22 05:06:31;;;;;;;1.02;0.90;;;22.60;45.30;;;;;;5019918;28;20077;-60
2022/09/22 05:08:58;;;;;;;0.77;0.77;;;22.60;45.20;;;;;;5007062;28;20049;-59
2022/09/22 05:11:26;;;;;;;1.00;1.00;;;22.60;45.20;;;;;;5015902;28;20045;-59
2022/09/22 05:13:54;;;;;;;0.80;0.68;;;22.60;45.10;;;;;;5018532;28;20053;-59
2022/09/22 05:16:22;;;;;;;1.10;1.00;;;22.60;45.00;;;;;;5014983;28;20061;-61
2022/09/22 05:18:49;;;;;;;0.90;0.90;;;22.60;45.00;;;;;;5019471;28;20104;-59
2022/09/22 05:21:17;;;;;;;1.42;1.10;;;22.60;44.90;;;;;;5021124;28;20512;-59
2022/09/22 05:23:45;;;;;;;0.82;0.77;;;22.60;44.80;;;;;;5015456;28;20050;-59
2022/09/22 05:26:12;;;;;;;0.95;0.85;;;22.70;44.90;;;;;;5011131;28;20045;-59
2022/09/22 05:28:40;;;;;;;1.08;0.88;;;22.70;44.90;;;;;;5018784;28;20049;-59
2022/09/22 05:31:07;;;;;;;2.78;1.30;;;22.70;45.00;;;;;;5010452;28;20367;-59
2022/09/22 05:33:34;;;;;;;0.90;0.90;;;22.70;45.10;;;;;;4996562;28;20493;-60
2022/09/22 05:36:02;;;;;;;3.63;1.15;;;22.70;45.20;;;;;;5002738;28;20050;-59
2022/09/22 05:38:29;;;;;;;5.72;0.93;;;22.70;45.30;;;;;;5007181;28;20828;-59
2022/09/22 05:40:56;;;;;;;0.80;0.80;;;22.70;45.30;;;;;;4999601;28;20502;-60
2022/09/22 05:43:23;;;;;;;1.23;1.05;;;22.80;45.30;;;;;;4997404;28;20391;-58
2022/09/22 05:45:51;;;;;;;2.72;1.00;;;22.70;45.10;;;;;;4996127;28;20049;-58
2022/09/22 05:48:18;;;;;;;1.67;1.40;;;22.80;45.10;;;;;;5000701;28;20050;-59
2022/09/22 05:50:45;;;;;;;3.28;1.00;;;22.80;45.10;;;;;;5005098;28;20057;-58
2022/09/22 05:53:12;;;;;;;1.20;1.08;;;22.80;45.10;;;;;;5000610;28;20041;-58
2022/09/22 05:55:40;;;;;;;1.55;1.33;;;22.90;45.20;;;;;;5005907;28;20054;-58
2022/09/22 05:58:13;;;;;;;2.88;1.20;;;22.90;45.20;;;;;;4974533;28;20053;-58
2022/09/22 06:00:40;;;;;;;1.55;1.33;;;23.00;45.20;;;;;;5001789;28;20057;-58
2022/09/22 06:03:07;;;;;;;1.67;1.23;;;22.90;45.40;;;;;;4998031;28;20041;-59
2022/09/22 06:05:34;;;;;;;1.45;1.35;;;23.00;45.40;;;;;;4997269;28;20149;-58
2022/09/22 06:08:06;;;;;;;1.45;1.02;;;23.00;45.30;;;;;;4993350;28;20057;-58
2022/09/22 06:10:35;;;;;;;1.95;1.23;;;23.10;45.30;;;;;;4995282;28;20050;-58
2022/09/22 06:13:10;;;;;;;2.15;1.75;;;23.10;45.20;;;;;;5000366;28;20054;-58
2022/09/22 06:15:38;;;;;;;3.88;1.13;;;23.20;45.20;;;;;;4999238;28;20042;-58
2022/09/22 06:18:08;;;;;;;3.30;1.27;;;23.20;44.90;;;;;;4990185;28;20049;-59
2022/09/22 06:20:41;;;;;;;2.08;1.40;;;23.30;44.80;;;;;;5002857;28;20053;-59
2022/09/22 06:23:08;;;;;;;1.35;1.17;;;23.30;44.60;;;;;;5000096;28;20046;-60
2022/09/22 06:25:36;;;;;;;1.90;1.42;;;23.30;44.30;;;;;;4996493;28;20108;-60
2022/09/22 06:28:08;;;;;;;1.25;1.15;;;23.30;44.10;;;;;;4989916;28;20121;-60
2022/09/22 06:30:40;;;;;;;1.55;1.10;;;23.30;44.00;;;;;;4978172;28;20061;-59
2022/09/22 06:33:08;;;;;;;1.63;1.45;;;23.40;43.80;;;;;;4982501;28;20158;-59
2022/09/22 06:35:36;;;;;;;1.45;1.30;;;23.40;43.70;;;;;;4984262;28;20406;-60
2022/09/22 06:38:05;;;;;;;2.42;0.98;;;23.40;43.60;;;;;;5000907;28;20413;-60
2022/09/22 06:40:37;;;;;;;1.48;1.38;;;23.40;43.50;;;;;;4989441;28;20111;-60
2022/09/22 06:43:11;;;;;;;1.40;1.23;;;23.40;43.50;;;;;;5001943;28;20477;-59
2022/09/22 06:45:39;;;;;;;1.15;1.05;;;23.40;43.50;;;;;;4998512;28;20081;-58
2022/09/22 06:48:09;;;;;;;0.95;0.85;;;23.40;43.60;;;;;;5006676;28;20529;-58
2022/09/22 06:50:39;;;;;;;1.30;1.20;;;23.50;43.80;;;;;;4999785;28;20050;-60
2022/09/22 06:53:10;;;;;;;;;;;23.50;44.00;;;;;;5003983;28;20553;-60
2022/09/22 06:55:40;;;;;;;;;;;23.50;44.00;;;;;;5003593;28;19984;-61
2022/09/22 06:58:08;;;;;;;4.45;1.30;;;23.60;44.20;;;;;;5005969;28;20020;-60
2022/09/22 07:00:35;;;;;;;1.23;1.08;;;23.60;44.20;;;;;;5001197;28;20060;-59
2022/09/22 07:03:13;;;;;;;1.35;1.23;;;23.60;44.10;;;;;;4997170;28;20073;-58
2022/09/22 07:05:42;;;;;;;1.27;1.17;;;23.70;44.20;;;;;;5001647;28;20513;-58
2022/09/22 07:08:09;;;;;;;2.10;1.58;;;23.70;44.20;;;;;;5004588;28;20060;-59
2022/09/22 07:10:36;;;;;;;4.28;1.40;;;23.70;44.20;;;;;;4998864;28;20426;-60
2022/09/22 07:13:05;;;;;;;4.65;1.23;;;23.80;44.10;;;;;;4999901;28;20101;-60
2022/09/22 07:15:35;;;;;;;5.47;2.03;;;23.80;44.00;;;;;;4995395;28;20687;-60
2022/09/22 07:18:03;;;;;;;3.20;1.73;;;23.80;44.10;;;;;;4999931;28;20475;-59
2022/09/22 07:20:32;;;;;;;5.95;1.40;;;23.80;44.20;;;;;;4997447;28;20401;-59
2022/09/22 07:22:59;;;;;;;5.30;0.95;;;23.80;44.20;;;;;;5000385;28;20061;-60
2022/09/22 07:25:28;;;;;;;1.88;1.30;;;23.90;44.20;;;;;;5003990;28;20121;-61
2022/09/22 07:28:03;;;;;;;1.25;0.90;;;23.90;44.10;;;;;;5003151;28;20050;-59
2022/09/22 07:30:33;;;;;;;3.38;1.30;;;23.90;44.00;;;;;;5001037;28;20104;-59
2022/09/22 07:33:00;;;;;;;1.40;1.00;;;23.90;43.90;;;;;;5000657;28;20054;-60
2022/09/22 07:35:27;;;;;;;3.17;0.90;;;24.00;44.00;;;;;;4994573;28;20109;-61
2022/09/22 07:38:01;;;;;;;4.63;1.23;;;24.00;44.00;;;;;;4981686;28;20065;-60
2022/09/22 07:40:28;;;;;;;1.15;1.05;;;24.00;44.00;;;;;;4996132;28;20500;-59
2022/09/22 07:42:55;;;;;;;5.13;1.17;;;24.10;43.90;;;;;;4998687;28;20046;-60
2022/09/22 07:45:22;;;;;;;3.35;1.10;;;24.10;43.70;;;;;;4997074;28;20049;-60
2022/09/22 07:50:37;;;;;;;1.95;1.05;;;24.10;43.60;;;;;;4998161;28;20049;-60
2022/09/22 07:53:04;;;;;;;2.05;1.45;;;24.10;43.60;;;;;;4995393;28;20155;-59
2022/09/22 07:55:33;;;;;;;3.05;1.05;;;24.10;43.50;;;;;;5002340;28;20076;-60
2022/09/22 07:58:00;;;;;;;1.63;1.13;;;24.20;43.50;;;;;;4996141;28;20054;-60
2022/09/22 08:00:32;;;;;;;1.80;1.10;;;24.20;43.40;;;;;;4998003;28;20062;-60
2022/09/22 08:03:00;;;;;;;1.13;1.02;;;24.20;43.30;;;;;;5002105;28;20391;-60
2022/09/22 08:05:28;;;;;;;1.23;1.13;;;24.20;43.10;;;;;;4997400;28;20152;-60
2022/09/22 08:07:57;;;;;;;2.10;1.20;;;24.20;43.10;;;;;;4996303;28;20662;-61
2022/09/22 08:10:25;;;;;;;3.13;1.90;;;24.20;43.00;;;;;;4998582;28;20077;-60
2022/09/22 08:12:53;;;;;;;2.35;1.20;;;24.20;42.90;;;;;;4997209;28;20049;-60
2022/09/22 08:15:21;;;;;;;2.58;1.70;;;24.30;43.40;;;;;;4999671;28;20870;-59
2022/09/22 08:17:56;;;;;;;3.35;1.05;;;24.30;42.90;;;;;;4985286;28;20056;-60
2022/09/22 08:20:28;;;;;;;1.52;1.27;;;24.30;42.80;;;;;;4996875;28;20053;-59
2022/09/22 08:23:04;;;;;;;1.27;1.17;;;24.30;42.60;;;;;;4996252;28;20058;-60
2022/09/22 08:25:31;;;;;;;2.08;1.05;;;24.30;42.50;;;;;;5002789;28;20057;-60
2022/09/22 08:28:00;;;;;;;1.58;1.08;;;24.30;42.50;;;;;;5003692;28;20554;-59
2022/09/22 08:30:28;;;;;;;2.67;1.20;;;24.30;42.50;;;;;;4999793;28;20525;-60
2022/09/22 08:32:55;;;;;;;3.67;1.02;;;24.30;42.50;;;;;;4997076;28;20135;-61
2022/09/22 08:35:22;;;;;;;2.75;1.30;;;24.40;42.60;;;;;;4994714;28;20053;-58
2022/09/22 08:37:50;;;;;;;6.80;1.15;;;24.40;42.50;;;;;;5000882;28;20061;-60
2022/09/22 08:40:24;;;;;;;1.13;0.70;;;24.40;42.40;;;;;;4992047;28;20053;-61
2022/09/22 08:42:54;;;;;;;1.35;0.98;;;24.40;42.30;;;;;;4997061;28;20093;-60
2022/09/22 08:45:33;;;;;;;3.47;1.00;;;24.40;42.20;;;;;;5001996;28;20042;-60
2022/09/22 08:53:55;;;;;;;2.38;1.02;;;24.50;42.10;;;;;;5008679;28;20076;-60
2022/09/22 08:56:57;;;;;;;0.88;0.88;;;24.50;42.00;;;;;;5002123;28;20049;-61
2022/09/22 08:59:32;;;;;;;6.07;1.02;;;24.50;42.00;;;;;;5008549;28;20049;-60
2022/09/22 09:02:32;;;;;;;2.50;1.20;;;24.50;42.00;;;;;;5000375;28;20057;-60
2022/09/22 09:05:33;;;;;;;1.38;0.90;;;24.50;42.00;;;;;;5001416;28;20053;-60
2022/09/22 09:08:27;;;;;;;1.55;0.80;;;24.50;41.90;;;;;;4978121;28;20525;-62
2022/09/22 09:11:17;;;;;;;1.15;1.05;;;24.50;41.80;;;;;;4994455;28;20176;-60
2022/09/22 09:14:03;;;;;;;0.77;0.77;;;24.50;41.60;;;;;;4996843;28;20065;-60
2022/09/22 09:16:56;;;;;;;0.85;0.85;;;24.60;41.50;;;;;;5002256;28;20077;-60
2022/09/22 09:19:44;;;;;;;1.00;0.88;;;24.60;41.50;;;;;;5004167;28;20509;-60
2022/09/22 09:22:24;;;;;;;3.47;1.65;;;24.60;41.40;;;;;;5006471;28;20053;-59
2022/09/22 09:25:14;;;;;;;3.78;1.17;;;24.60;41.30;;;;;;5004740;28;20155;-59
2022/09/22 09:27:59;;;;;;;4.13;0.88;;;24.60;41.20;;;;;;5000040;28;20052;-60
2022/09/22 09:30:37;;;;;;;1.98;0.80;;;24.70;41.10;;;;;;5009226;28;20045;-61
2022/09/22 09:33:30;;;;;;;0.98;0.90;;;24.70;41.00;;;;;;5005561;28;20049;-60
2022/09/22 09:36:00;;;;;;;0.90;0.90;;;24.70;40.80;;;;;;5003766;28;20060;-60
2022/09/22 09:38:37;;;;;;;1.10;0.82;;;24.70;40.70;;;;;;5001350;28;20314;-60
2022/09/22 09:41:22;;;;;;;0.90;0.90;;;24.70;40.60;;;;;;5004374;28;20428;-61
2022/09/22 09:43:53;;;;;;;0.68;0.68;;;24.70;40.40;;;;;;4998489;28;20061;-60
2022/09/22 09:46:57;;;;;;;1.52;0.90;;;24.70;40.30;;;;;;5002660;28;20128;-60
2022/09/22 09:49:24;;;;;;;1.65;1.55;;;24.80;40.40;;;;;;5001303;28;20402;-59
2022/09/22 09:51:55;;;;;;;1.13;0.98;;;24.80;40.50;;;;;;5001103;28;20057;-59
2022/09/22 09:54:23;;;;;;;1.45;1.13;;;24.90;40.50;;;;;;5004812;28;20064;-59
2022/09/22 09:57:14;;;;;;;1.35;1.13;;;24.90;40.50;;;;;;5007715;28;20524;-60
2022/09/22 10:02:56;;;;;;;1.10;1.00;;;24.90;40.50;;;;;;5002837;28;20133;-58
2022/09/22 10:05:25;;;;;;;1.92;0.80;;;24.90;40.40;;;;;;4991868;28;20061;-59
2022/09/22 10:07:59;;;;;;;4.35;1.40;;;24.90;40.50;;;;;;5001631;28;20056;-60
2022/09/22 10:10:34;;;;;;;1.98;0.90;;;25.00;40.50;;;;;;5005682;28;20589;-60
2022/09/22 10:13:22;;;;;;;2.38;1.10;;;25.00;40.40;;;;;;4992395;28;20085;-60
2022/09/22 10:16:01;;;;;;;4.82;1.10;;;25.00;40.10;;;;;;4981129;28;20050;-60
2022/09/22 10:18:38;;;;;;;4.35;1.20;;;25.10;40.10;;;;;;4997878;28;20100;-61
2022/09/22 10:21:16;;;;;;;3.75;1.10;;;25.10;39.90;;;;;;4995654;28;20989;-60
2022/09/22 10:23:51;;;;;;;1.30;0.90;;;25.10;39.80;;;;;;5002420;28;20072;-60
2022/09/22 10:26:25;;;;;;;1.73;1.10;;;25.10;39.60;;;;;;4998350;28;20402;-60
2022/09/22 10:29:17;;;;;;;1.77;0.90;;;25.10;39.50;;;;;;5000088;28;20052;-60
2022/09/22 10:32:06;;;;;;;2.60;1.42;;;25.10;39.40;;;;;;5001690;28;20042;-61
2022/09/22 10:34:47;;;;;;;1.25;0.98;;;25.20;39.50;;;;;;5007712;28;20046;-60
2022/09/22 10:37:18;;;;;;;2.25;0.90;;;25.20;39.30;;;;;;5010470;28;20391;-60
2022/09/22 10:39:52;;;;;;;4.35;0.80;;;25.20;39.10;;;;;;4994334;28;20049;-60
2022/09/22 10:42:40;;;;;;;1.63;0.70;;;25.20;39.10;;;;;;5007154;28;20129;-60
2022/09/22 10:45:18;;;;;;;4.68;1.10;;;25.30;39.00;;;;;;5013375;28;20104;-60
2022/09/22 10:47:58;;;;;;;1.40;0.95;;;25.30;39.10;;;;;;5002650;28;20533;-60
2022/09/22 10:50:54;;;;;;;1.00;0.90;;;25.30;39.10;;;;;;4987238;28;20050;-60
2022/09/22 10:53:52;;;;;;;1.17;0.80;;;25.40;39.40;;;;;;5007772;28;20065;-60
2022/09/22 10:56:37;;;;;;;0.70;0.70;;;25.40;39.50;;;;;;5007613;28;20476;-60
2022/09/22 10:59:31;;;;;;;0.93;0.90;;;25.40;39.20;;;;;;5006908;28;20046;-60
2022/09/22 11:02:22;;;;;;;0.75;0.75;;;25.40;39.20;;;;;;5008337;28;21192;-60
2022/09/22 11:12:15;;;;;;;2.05;0.90;;;25.30;38.90;;;;;;5010024;28;20511;-59
2022/09/22 11:14:41;;;;;;;3.80;1.13;;;25.40;39.30;;;;;;4997018;28;20108;-59
2022/09/22 11:17:37;;;;;;;8.30;1.30;;;25.40;39.40;;;;;;4983447;28;20486;-59
2022/09/22 11:20:23;;;;;;;0.70;0.70;;;25.40;39.40;;;;;;4994738;28;20140;-59
2022/09/22 11:23:21;;;;;;;3.58;1.40;;;25.40;39.40;;;;;;5000684;28;20112;-58
2022/09/22 11:26:17;;;;;;;2.08;0.93;;;25.50;39.40;;;;;;5009933;28;20054;-59
2022/09/22 11:29:23;;;;;;;1.25;1.13;;;25.50;39.30;;;;;;5000222;28;20046;-59
2022/09/22 11:32:18;;;;;;;1.15;1.05;;;25.50;39.30;;;;;;4993171;28;20103;-60
2022/09/22 11:35:21;;;;;;;0.80;0.70;;;25.50;39.30;;;;;;4994730;28;20050;-60
2022/09/22 11:38:18;;;;;;;2.25;0.80;;;25.60;39.40;;;;;;4997122;28;20049;-59
2022/09/22 11:41:16;;;;;;;5.18;1.13;;;25.70;39.50;;;;;;4984038;28;20046;-58
2022/09/22 11:44:19;;;;;;;1.42;0.80;;;25.70;39.30;;;;;;5004687;28;20060;-59
2022/09/22 11:47:02;;;;;;;1.42;0.80;;;25.70;39.40;;;;;;4986056;28;20049;-59
2022/09/22 11:50:07;;;;;;;3.80;1.38;;;25.70;39.30;;;;;;4992083;28;20521;-58
2022/09/22 11:53:14;;;;;;;2.45;0.80;;;25.70;39.20;;;;;;4995301;28;20037;-58
2022/09/22 11:56:21;;;;;;;3.03;0.80;;;25.70;39.10;;;;;;4987919;28;20046;-57
2022/09/22 11:58:54;;;;;;;1.00;0.70;;;25.80;39.30;;;;;;5003078;28;20058;-59
2022/09/22 12:01:28;;;;;;;1.85;0.85;;;25.80;39.10;;;;;;4984991;28;20105;-58
2022/09/22 12:04:08;;;;;;;1.38;0.90;;;25.90;39.10;;;;;;5000460;28;20145;-58
2022/09/22 12:06:40;;;;;;;1.27;0.70;;;25.90;38.90;;;;;;5001833;28;20062;-59
2022/09/22 12:09:21;;;;;;;1.55;0.70;;;25.90;38.80;;;;;;4996128;28;20054;-58
2022/09/22 12:11:50;;;;;;;2.22;1.27;;;25.90;38.80;;;;;;4992929;28;20513;-59
2022/09/22 12:14:17;;;;;;;1.52;1.00;;;25.90;38.70;;;;;;4994180;28;20048;-59
2022/09/22 12:17:04;;;;;;;0.82;0.80;;;25.90;38.80;;;;;;4995444;28;20057;-58
2022/09/22 12:19:53;;;;;;;1.02;0.80;;;25.90;38.70;;;;;;4992244;28;20045;-57
2022/09/22 12:22:34;;;;;;;0.90;0.77;;;25.90;38.70;;;;;;4989460;28;20056;-58
2022/09/22 12:25:01;;;;;;;0.73;0.50;;;25.90;38.70;;;;;;4993723;28;20076;-59
2022/09/22 12:27:29;;;;;;;0.60;0.60;;;25.90;38.70;;;;;;4985870;28;20038;-59
2022/09/22 12:30:02;;;;;;;0.65;0.65;;;25.90;38.60;;;;;;4992882;28;20050;-58
2022/09/22 12:32:38;;;;;;;1.08;1.00;;;25.90;38.60;;;;;;4997403;28;20052;-59
2022/09/22 12:35:06;;;;;;;2.08;1.02;;;26.00;38.60;;;;;;5000757;28;20054;-59
2022/09/22 12:37:37;;;;;;;1.50;0.68;;;26.00;38.60;;;;;;4996404;28;20057;-59
2022/09/22 12:40:40;;;;;;;2.42;0.80;;;26.00;38.70;;;;;;4993345;28;20057;-59
2022/09/22 12:43:18;;;;;;;18.17;0.93;;;26.00;38.70;;;;;;4982110;28;20105;-59
2022/09/22 12:45:46;;;;;;;2.67;0.90;;;26.10;39.10;;;;;;4993603;28;20050;-59
2022/09/22 12:48:23;;;;;;;1.25;0.95;;;26.10;38.70;;;;;;5003769;28;20056;-59
2022/09/22 12:50:51;;;;;;;0.88;0.60;;;26.10;38.70;;;;;;5001500;28;20053;-58
2022/09/22 12:53:26;;;;;;;1.80;1.13;;;26.10;38.80;;;;;;5003522;28;20049;-59
2022/09/22 12:55:55;;;;;;;4.13;0.98;;;26.10;38.80;;;;;;4995625;28;20501;-58
2022/09/22 12:58:41;;;;;;;3.25;0.80;;;26.10;38.80;;;;;;4993406;28;20486;-59
2022/09/22 13:01:33;;;;;;;1.73;0.98;;;26.10;38.70;;;;;;5002947;28;20058;-59
2022/09/22 13:04:15;;;;;;;0.98;0.98;;;26.10;38.80;;;;;;4998389;28;20057;-58
2022/09/22 13:06:52;;;;;;;0.80;0.80;;;26.10;38.90;;;;;;5000286;28;20145;-59
2022/09/22 13:09:24;;;;;;;4.97;0.95;;;26.10;38.90;;;;;;5004224;28;20061;-58
2022/09/22 13:12:21;;;;;;;1.73;1.23;;;26.00;38.80;;;;;;5002379;28;20667;-59
2022/09/22 13:15:14;;;;;;;3.20;1.02;;;26.00;38.80;;;;;;4996025;28;20544;-59
2022/09/22 13:17:45;;;;;;;1.88;0.90;;;26.00;39.00;;;;;;4996954;28;20493;-62
2022/09/22 13:20:22;;;;;;;1.17;1.10;;;26.00;39.10;;;;;;4998708;28;20062;-59
2022/09/22 13:22:51;;;;;;;2.42;1.10;;;26.00;39.20;;;;;;4998008;28;20042;-59
2022/09/22 13:25:22;;;;;;;4.20;1.05;;;26.00;39.40;;;;;;5000775;28;20050;-60
2022/09/22 13:28:02;;;;;;;1.45;1.33;;;25.90;39.20;;;;;;4997994;28;20054;-58
2022/09/22 13:30:29;;;;;;;1.92;1.73;;;26.00;39.10;;;;;;4999927;28;20049;-59
2022/09/22 13:32:58;;;;;;;3.10;1.33;;;26.00;39.20;;;;;;4993649;28;20081;-59
2022/09/22 13:35:33;;;;;;;1.58;1.30;;;25.90;39.10;;;;;;5008931;28;20691;-60
2022/09/22 13:38:00;;;;;;;4.80;1.27;;;25.90;39.10;;;;;;5001012;28;20498;-59
2022/09/22 13:40:30;;;;;;;1.90;1.77;;;25.90;39.10;;;;;;4999317;28;20053;-61
2022/09/22 13:43:05;;;;;;;1.60;1.35;;;25.90;39.20;;;;;;4992518;28;20464;-59
2022/09/22 13:45:32;;;;;;;2.10;1.65;;;25.90;39.20;;;;;;4990222;28;20474;-58
2022/09/22 13:48:07;;;;;;;1.98;1.42;;;25.90;39.20;;;;;;4986509;28;20506;-58